Terminal Aerodrome Forecast
Issued by NWS Louisville, KY

Home | Current Version | Previous Version | Text Only | Print | Product List | Glossary On
Versions: 1 2 3 4 5 6 7 8 9 10 11 12 13 14
000
FTUS43 KLMK 291700
TAFSDF
TAF
KSDF 291730Z 2918/3024 32006KT P6SM FEW050
     FM300100 VRB03KT P6SM SKC
     FM301500 30005KT P6SM FEW040 FEW250=

USA.gov is the U.S. government's official web portal to all federal, state and local government web resources and services.